Time;durP1;ratioP1;P1;durP2;ratioP2;P2;SDS_P1;SDS_P2;PMS_P1;PMS_P2;Temp;Humidity;BMP_temperature;BMP_pressure;BME280_temperature;BME280_humidity;BME280_pressure;Samples;Min_cycle;Max_cycle;Signal;HPM_P1;HPM_P2
2021/03/23 00:01:33;;;;;;;8.23;3.33;;;17.00;53.20;;;;;;5030480;28;20186;-64
2021/03/23 00:03:59;;;;;;;9.35;3.42;;;16.90;53.70;;;;;;5030441;28;20039;-65
2021/03/23 00:06:28;;;;;;;11.35;3.38;;;16.90;53.20;;;;;;5029361;28;20566;-65
2021/03/23 00:08:57;;;;;;;9.55;3.00;;;16.90;53.20;;;;;;5028941;28;20029;-64
2021/03/23 00:11:27;;;;;;;8.57;3.38;;;16.90;53.20;;;;;;5031313;28;20084;-65
2021/03/23 00:13:54;;;;;;;9.15;2.80;;;16.90;53.20;;;;;;5031244;28;20025;-66
2021/03/23 00:16:23;;;;;;;7.90;3.10;;;16.90;53.10;;;;;;5031417;28;20115;-64
2021/03/23 00:18:50;;;;;;;9.00;3.17;;;16.90;53.10;;;;;;5030928;28;20057;-64
2021/03/23 00:21:16;;;;;;;9.13;3.38;;;16.80;53.10;;;;;;5030588;28;20441;-64
2021/03/23 00:23:43;;;;;;;7.38;2.72;;;16.80;53.20;;;;;;5030288;28;20029;-64
2021/03/23 00:26:09;;;;;;;7.95;2.97;;;16.80;53.20;;;;;;5029698;28;20116;-63
2021/03/23 00:28:35;;;;;;;8.98;3.10;;;16.80;53.20;;;;;;5029521;28;20561;-64
2021/03/23 00:31:01;;;;;;;7.63;2.88;;;16.80;53.20;;;;;;5031264;28;20037;-65
2021/03/23 00:33:27;;;;;;;8.73;2.85;;;16.80;53.30;;;;;;5031093;28;20025;-63
2021/03/23 00:35:57;;;;;;;10.23;3.20;;;16.70;53.10;;;;;;5031427;28;20053;-64
2021/03/23 00:38:23;;;;;;;8.55;2.60;;;16.70;53.20;;;;;;5030249;28;20104;-64
2021/03/23 00:40:50;;;;;;;6.93;2.55;;;16.70;53.20;;;;;;5031343;28;20032;-63
2021/03/23 00:43:16;;;;;;;8.57;2.97;;;16.70;53.50;;;;;;5030707;28;20063;-64
2021/03/23 00:45:43;;;;;;;6.05;2.42;;;16.70;53.20;;;;;;5030596;28;20021;-63
2021/03/23 00:48:11;;;;;;;5.35;2.03;;;16.70;53.20;;;;;;5030567;28;20041;-65
2021/03/23 00:50:37;;;;;;;6.22;2.20;;;16.70;53.20;;;;;;5030793;28;20479;-66
2021/03/23 00:53:03;;;;;;;7.00;2.30;;;16.70;53.20;;;;;;5028913;28;20032;-63
2021/03/23 00:55:29;;;;;;;6.90;2.80;;;16.60;53.20;;;;;;5031019;28;20026;-64
2021/03/23 00:57:54;;;;;;;6.57;2.35;;;16.70;53.20;;;;;;5028939;28;20283;-62
2021/03/23 01:00:21;;;;;;;7.15;2.17;;;16.60;53.10;;;;;;5030393;28;20044;-62
2021/03/23 01:02:47;;;;;;;7.18;2.50;;;16.60;53.20;;;;;;5030719;28;20037;-63
2021/03/23 01:05:14;;;;;;;7.15;2.22;;;16.60;53.10;;;;;;5030739;28;20025;-64
2021/03/23 01:07:40;;;;;;;4.70;2.10;;;16.60;53.10;;;;;;5030958;28;20032;-66
2021/03/23 01:10:09;;;;;;;7.25;2.40;;;16.60;53.10;;;;;;5030277;28;20025;-64
2021/03/23 01:12:34;;;;;;;5.75;2.50;;;16.60;53.20;;;;;;5025911;28;20070;-64
2021/03/23 01:15:00;;;;;;;6.75;1.98;;;16.60;53.10;;;;;;5019543;28;20045;-64
2021/03/23 01:17:26;;;;;;;6.75;2.30;;;16.60;53.30;;;;;;5030221;28;20426;-63
2021/03/23 01:19:51;;;;;;;6.32;2.40;;;16.60;53.20;;;;;;5033085;28;20048;-64
2021/03/23 01:22:17;;;;;;;5.60;1.98;;;16.70;53.10;;;;;;5033222;28;20030;-64
2021/03/23 01:24:42;;;;;;;6.47;2.50;;;16.80;52.90;;;;;;5033226;28;20533;-65
2021/03/23 01:27:08;;;;;;;8.02;1.80;;;16.80;52.80;;;;;;5033480;28;20069;-64
2021/03/23 01:29:34;;;;;;;6.97;1.95;;;16.80;52.70;;;;;;5032825;28;20490;-64
2021/03/23 01:32:00;;;;;;;6.63;1.98;;;16.90;52.50;;;;;;5033918;28;20567;-63
2021/03/23 01:34:26;;;;;;;4.93;2.08;;;16.90;52.40;;;;;;5034109;28;20021;-65
2021/03/23 01:36:51;;;;;;;6.13;2.05;;;16.90;52.40;;;;;;5033761;28;20371;-65
2021/03/23 01:39:17;;;;;;;5.90;1.80;;;16.90;52.40;;;;;;5033939;28;20025;-64
2021/03/23 01:41:42;;;;;;;6.03;1.85;;;16.90;52.30;;;;;;5033871;28;20175;-63
2021/03/23 01:44:08;;;;;;;5.40;2.05;;;16.90;52.30;;;;;;5033352;28;20026;-64
2021/03/23 01:46:48;;;;;;;5.53;2.17;;;16.90;52.30;;;;;;5033276;28;20044;-65
2021/03/23 01:49:20;;;;;;;5.07;1.90;;;16.80;52.20;;;;;;5033717;28;20033;-63
2021/03/23 01:51:51;;;;;;;5.10;1.85;;;16.80;52.20;;;;;;5033376;28;20021;-65
2021/03/23 01:54:21;;;;;;;5.35;1.83;;;16.80;52.40;;;;;;5033833;28;20029;-64
2021/03/23 01:56:50;;;;;;;5.07;1.90;;;16.80;52.50;;;;;;5032297;28;20028;-64
2021/03/23 01:59:18;;;;;;;4.65;1.65;;;16.80;52.50;;;;;;5032506;28;20502;-64
2021/03/23 02:01:44;;;;;;;4.97;1.90;;;16.80;52.60;;;;;;5033611;28;20439;-64
2021/03/23 02:04:10;;;;;;;5.53;1.88;;;16.80;52.50;;;;;;5033532;28;20032;-63
2021/03/23 02:06:42;;;;;;;8.57;1.80;;;16.70;53.00;;;;;;5032936;28;20104;-63
2021/03/23 02:09:16;;;;;;;4.53;1.98;;;16.70;53.10;;;;;;5033333;28;20036;-64
2021/03/23 02:11:53;;;;;;;4.93;1.80;;;16.70;52.50;;;;;;5032886;28;20029;-64
2021/03/23 02:14:22;;;;;;;6.72;2.05;;;16.60;52.60;;;;;;5033207;28;20486;-63
2021/03/23 02:16:48;;;;;;;5.57;1.92;;;16.60;52.60;;;;;;5033327;28;20387;-64
2021/03/23 02:19:17;;;;;;;4.82;1.60;;;16.60;52.60;;;;;;5031814;28;20029;-64
2021/03/23 02:21:42;;;;;;;6.35;2.25;;;16.60;52.60;;;;;;5032451;28;20113;-62
2021/03/23 02:24:13;;;;;;;4.55;1.70;;;16.60;52.60;;;;;;5032815;28;20558;-64
2021/03/23 02:26:38;;;;;;;3.88;1.77;;;16.60;52.50;;;;;;5032058;28;20064;-64
2021/03/23 02:29:06;;;;;;;6.22;1.70;;;16.60;52.60;;;;;;5032009;28;20033;-64
2021/03/23 02:31:53;;;;;;;4.15;1.70;;;16.50;52.60;;;;;;5032521;28;20570;-61
2021/03/23 02:34:21;;;;;;;4.45;1.75;;;16.50;52.60;;;;;;5013545;28;20037;-63
2021/03/23 02:36:49;;;;;;;4.28;1.67;;;16.50;52.70;;;;;;5029335;28;20024;-63
2021/03/23 02:39:24;;;;;;;5.50;1.70;;;16.50;52.60;;;;;;5031473;28;20116;-63
2021/03/23 02:41:50;;;;;;;4.45;1.60;;;16.50;52.70;;;;;;5031549;28;20562;-64
2021/03/23 02:44:16;;;;;;;4.00;1.50;;;16.50;52.60;;;;;;5032343;28;20108;-63
2021/03/23 02:46:41;;;;;;;4.78;1.80;;;16.50;52.70;;;;;;5032620;28;20021;-63
2021/03/23 02:49:07;;;;;;;6.13;2.03;;;16.40;52.70;;;;;;5032323;28;20036;-63
2021/03/23 02:51:33;;;;;;;5.70;1.75;;;16.40;52.80;;;;;;5032059;28;20025;-63
2021/03/23 02:53:59;;;;;;;6.65;1.98;;;16.40;52.90;;;;;;5032253;28;20053;-63
2021/03/23 02:56:24;;;;;;;4.13;1.85;;;16.40;52.90;;;;;;5032122;28;20021;-63
2021/03/23 03:01:17;;;;;;;5.07;1.55;;;16.40;52.90;;;;;;5031420;22;20061;-68
2021/03/23 03:03:43;;;;;;;3.83;1.60;;;16.30;52.80;;;;;;5010909;28;20371;-69
2021/03/23 03:06:09;;;;;;;3.90;1.45;;;16.30;52.80;;;;;;5012828;28;20022;-69
2021/03/23 03:08:35;;;;;;;3.47;1.50;;;16.30;52.90;;;;;;5010444;28;20022;-69
2021/03/23 03:11:01;;;;;;;5.63;1.48;;;16.30;52.90;;;;;;5028984;28;20036;-69
2021/03/23 03:13:27;;;;;;;3.20;1.50;;;16.30;53.50;;;;;;5031947;28;20499;-69
2021/03/23 03:15:54;;;;;;;4.40;1.50;;;16.30;52.80;;;;;;5031156;28;20025;-69
2021/03/23 03:18:21;;;;;;;4.22;1.65;;;16.30;52.80;;;;;;5030150;28;20072;-69
2021/03/23 03:20:48;;;;;;;3.35;1.52;;;16.30;52.80;;;;;;5030763;28;20017;-69
2021/03/23 03:23:14;;;;;;;4.75;1.67;;;16.30;52.90;;;;;;5029364;28;20505;-69
2021/03/23 03:25:39;;;;;;;4.78;1.48;;;16.30;52.80;;;;;;5030346;28;20029;-70
2021/03/23 03:28:07;;;;;;;4.07;1.55;;;16.30;52.80;;;;;;5031712;28;20390;-69
2021/03/23 03:30:35;;;;;;;3.72;1.45;;;16.20;52.80;;;;;;5030639;28;20395;-69
2021/03/23 03:33:01;;;;;;;4.15;1.52;;;16.20;52.90;;;;;;5030701;28;20029;-69
2021/03/23 03:35:29;;;;;;;5.13;1.67;;;16.20;52.90;;;;;;5031746;28;20024;-69
2021/03/23 03:37:54;;;;;;;4.10;1.42;;;16.20;52.80;;;;;;5031669;28;20550;-70
2021/03/23 03:40:42;;;;;;;3.10;1.45;;;16.20;52.90;;;;;;5030110;28;20068;-70
2021/03/23 03:43:09;;;;;;;3.83;1.55;;;16.20;52.90;;;;;;5030032;28;20037;-70
2021/03/23 03:45:35;;;;;;;3.17;1.50;;;16.20;52.90;;;;;;5031863;28;20037;-70
2021/03/23 03:48:01;;;;;;;3.85;1.60;;;16.20;52.80;;;;;;5030505;28;20030;-70
2021/03/23 03:50:28;;;;;;;2.85;1.42;;;16.10;52.80;;;;;;5029613;28;20395;-70
2021/03/23 03:52:56;;;;;;;3.75;1.60;;;16.10;52.90;;;;;;5030459;28;20032;-70
2021/03/23 03:55:34;;;;;;;4.18;1.48;;;16.10;52.90;;;;;;5031449;28;20025;-69
2021/03/23 03:58:00;;;;;;;3.15;1.50;;;16.10;52.90;;;;;;5031685;28;20026;-69
2021/03/23 04:00:29;;;;;;;4.47;1.40;;;16.10;52.80;;;;;;5029298;28;20025;-70
2021/03/23 04:02:55;;;;;;;5.25;1.50;;;16.10;52.90;;;;;;5030672;28;20029;-70
2021/03/23 04:05:23;;;;;;;3.40;1.20;;;16.10;52.80;;;;;;5031434;28;20041;-70
2021/03/23 04:07:49;;;;;;;3.90;1.55;;;16.10;52.80;;;;;;5031204;28;20029;-70
2021/03/23 04:10:16;;;;;;;4.10;1.60;;;16.20;52.80;;;;;;5031062;28;20109;-70
2021/03/23 04:12:42;;;;;;;4.70;1.48;;;16.20;52.80;;;;;;5010490;28;20399;-70
2021/03/23 04:15:08;;;;;;;2.40;1.30;;;16.10;52.80;;;;;;5024439;28;20018;-70
2021/03/23 04:17:34;;;;;;;4.03;1.55;;;16.10;52.80;;;;;;5029865;28;20049;-71
2021/03/23 04:20:00;;;;;;;3.38;1.40;;;16.10;52.80;;;;;;5029937;28;20089;-70
2021/03/23 04:22:26;;;;;;;3.80;1.33;;;16.10;52.80;;;;;;5031175;28;20029;-70
2021/03/23 04:24:51;;;;;;;4.90;1.40;;;16.10;52.80;;;;;;5029331;28;20545;-71
2021/03/23 04:27:17;;;;;;;3.88;1.20;;;16.10;52.70;;;;;;5030998;28;20376;-70
2021/03/23 04:29:42;;;;;;;4.00;1.40;;;16.00;52.80;;;;;;5031070;28;20029;-70
2021/03/23 04:32:08;;;;;;;4.75;1.58;;;16.10;52.90;;;;;;5029340;28;20025;-70
2021/03/23 04:34:34;;;;;;;3.15;1.30;;;16.10;52.80;;;;;;5031079;28;20567;-69
2021/03/23 04:36:59;;;;;;;2.95;1.30;;;16.00;52.80;;;;;;5030663;28;20033;-70
2021/03/23 04:39:25;;;;;;;2.30;1.15;;;16.00;52.90;;;;;;5028820;28;20438;-70
2021/03/23 04:41:50;;;;;;;5.22;1.50;;;16.00;53.00;;;;;;5031071;28;20044;-71
2021/03/23 04:44:16;;;;;;;2.45;1.27;;;16.00;52.90;;;;;;5030573;28;20034;-70
2021/03/23 04:46:42;;;;;;;4.25;1.63;;;16.00;52.90;;;;;;5030792;28;20032;-70
2021/03/23 04:49:07;;;;;;;3.60;1.27;;;16.00;52.90;;;;;;5029729;28;20061;-69
2021/03/23 04:51:32;;;;;;;2.92;1.13;;;16.00;52.90;;;;;;5029509;28;20025;-69
2021/03/23 04:54:08;;;;;;;5.15;1.40;;;16.00;52.90;;;;;;5032206;28;20032;-70
2021/03/23 04:56:36;;;;;;;4.70;1.20;;;15.90;52.90;;;;;;5030620;28;20022;-70
2021/03/23 04:59:02;;;;;;;2.58;1.20;;;15.90;52.90;;;;;;5034395;28;20025;-70
2021/03/23 05:01:28;;;;;;;3.05;1.10;;;15.90;52.90;;;;;;5034564;28;20045;-70
2021/03/23 05:04:03;;;;;;;4.05;1.60;;;15.90;53.00;;;;;;5034351;28;20079;-69
2021/03/23 05:06:29;;;;;;;2.75;1.10;;;15.90;53.00;;;;;;5034427;28;20124;-70
2021/03/23 05:08:54;;;;;;;4.85;1.25;;;15.90;53.00;;;;;;5033268;28;20500;-70
2021/03/23 05:11:26;;;;;;;4.32;1.50;;;15.90;53.20;;;;;;5034413;28;20061;-70
2021/03/23 05:13:52;;;;;;;4.18;1.10;;;15.90;53.20;;;;;;5034317;28;20056;-70
2021/03/23 05:16:18;;;;;;;4.63;1.40;;;15.90;53.20;;;;;;5032762;28;20033;-70
2021/03/23 05:18:44;;;;;;;2.20;1.10;;;15.90;53.30;;;;;;5033774;28;20726;-70
2021/03/23 05:21:10;;;;;;;2.65;1.33;;;15.90;53.40;;;;;;5033082;28;20034;-70
2021/03/23 05:23:36;;;;;;;2.88;1.38;;;15.80;53.30;;;;;;5032930;28;20032;-70
2021/03/23 05:26:03;;;;;;;3.65;1.40;;;15.80;53.30;;;;;;5034221;28;20109;-70
2021/03/23 05:28:29;;;;;;;3.10;1.20;;;15.80;53.30;;;;;;5032615;28;20064;-70
2021/03/23 05:30:56;;;;;;;4.47;1.55;;;15.80;53.30;;;;;;5028393;28;20120;-70
2021/03/23 05:33:23;;;;;;;3.58;1.30;;;15.80;53.30;;;;;;5023064;28;20483;-70
2021/03/23 05:35:50;;;;;;;2.65;1.10;;;15.80;53.30;;;;;;5013440;28;20030;-70
2021/03/23 05:38:16;;;;;;;4.80;1.60;;;15.90;53.40;;;;;;5012795;28;20026;-69
2021/03/23 05:41:00;;;;;;;4.95;1.63;;;15.90;53.40;;;;;;5020421;28;20441;-70
2021/03/23 05:43:39;;;;;;;5.93;1.88;;;15.90;53.70;;;;;;5027853;28;20033;-69
2021/03/23 05:46:27;;;;;;;4.07;1.48;;;15.90;53.70;;;;;;5027966;28;20029;-70
2021/03/23 05:48:59;;;;;;;4.32;1.50;;;15.90;53.80;;;;;;5027549;28;20039;-68
2021/03/23 05:51:32;;;;;;;6.18;1.48;;;15.90;53.50;;;;;;5013926;28;20038;-63
2021/03/23 05:54:05;;;;;;;9.50;1.88;;;15.80;53.50;;;;;;5007603;28;20096;-66
2021/03/23 05:56:37;;;;;;;14.77;1.90;;;16.00;54.10;;;;;;5014988;28;20025;-67
2021/03/23 05:59:34;;;;;;;7.85;1.83;;;15.90;53.90;;;;;;5027076;28;20048;-67
2021/03/23 06:02:15;;;;;;;17.55;2.05;;;15.90;54.40;;;;;;5019560;28;20371;-65
2021/03/23 06:04:41;;;;;;;;;;;16.00;54.40;;;;;;5007961;28;20581;-65
2021/03/23 06:07:12;;;;;;;12.75;2.05;;;16.00;55.00;;;;;;5012165;28;19912;-64
2021/03/23 06:09:39;;;;;;;15.38;2.20;;;16.00;54.40;;;;;;5023444;28;20439;-63
2021/03/23 06:12:28;;;;;;;12.50;2.30;;;16.00;54.70;;;;;;5024060;28;20033;-62
2021/03/23 06:14:58;;;;;;;11.38;2.20;;;15.90;54.50;;;;;;5022872;28;20060;-63
2021/03/23 06:17:54;;;;;;;16.73;2.50;;;16.00;54.70;;;;;;5037235;28;20029;-71
2021/03/23 06:20:48;;;;;;;17.02;2.45;;;16.00;55.00;;;;;;5015784;28;20448;-74
2021/03/23 06:23:25;;;;;;;16.17;2.05;;;16.20;55.90;;;;;;5018827;28;20139;-75
2021/03/23 06:26:28;;;;;;;15.73;2.28;;;16.30;55.90;;;;;;5025009;28;20029;-74
2021/03/23 06:29:10;;;;;;;16.88;2.13;;;16.20;55.10;;;;;;5026394;28;20032;-72
2021/03/23 06:32:00;;;;;;;12.52;2.28;;;16.10;55.50;;;;;;5025805;28;20068;-72
2021/03/23 06:34:29;;;;;;;12.52;2.00;;;16.10;55.70;;;;;;5024792;28;20037;-72
2021/03/23 06:36:56;;;;;;;9.43;1.75;;;16.10;55.30;;;;;;5025193;28;20053;-71
2021/03/23 06:39:22;;;;;;;9.30;2.10;;;16.00;54.90;;;;;;5025623;28;20049;-71
2021/03/23 06:42:00;;;;;;;10.70;1.90;;;16.00;54.80;;;;;;5023621;28;20037;-72
2021/03/23 06:44:33;;;;;;;8.80;2.08;;;15.90;54.40;;;;;;5025471;28;20033;-68
2021/03/23 06:46:59;;;;;;;12.90;2.05;;;15.90;54.40;;;;;;5026781;28;20041;-74
2021/03/23 06:49:29;;;;;;;11.05;2.25;;;15.90;54.40;;;;;;5026769;28;20033;-74
2021/03/23 06:51:58;;;;;;;10.07;2.28;;;15.80;54.30;;;;;;5025367;28;20094;-71
2021/03/23 06:54:26;;;;;;;10.90;2.50;;;15.80;54.30;;;;;;5026936;28;20102;-70
2021/03/23 06:57:00;;;;;;;5.93;2.00;;;15.80;54.20;;;;;;5026614;28;20029;-71
2021/03/23 06:59:27;;;;;;;8.13;1.92;;;15.80;54.00;;;;;;5026207;28;20419;-70
2021/03/23 07:02:00;;;;;;;13.50;2.10;;;15.80;54.00;;;;;;5025070;28;20033;-71
2021/03/23 07:04:28;;;;;;;7.68;2.10;;;15.80;53.90;;;;;;5025401;28;20060;-72
2021/03/23 07:07:12;;;;;;;8.35;1.70;;;15.80;53.90;;;;;;5026693;28;20033;-72
2021/03/23 07:09:49;;;;;;;7.68;1.70;;;15.80;53.90;;;;;;5012821;28;20399;-70
2021/03/23 07:12:15;;;;;;;8.13;2.03;;;15.80;54.00;;;;;;5013716;28;20066;-72
2021/03/23 07:14:50;;;;;;;8.23;1.90;;;15.80;54.20;;;;;;5031053;28;20112;-73
2021/03/23 07:17:28;;;;;;;8.52;1.58;;;15.80;54.20;;;;;;5024169;28;20053;-71
2021/03/23 07:19:58;;;;;;;7.93;1.83;;;15.90;54.10;;;;;;5024303;28;20409;-71
2021/03/23 07:22:42;;;;;;;6.63;1.83;;;15.80;54.20;;;;;;5023306;28;20513;-70
2021/03/23 07:25:28;;;;;;;6.38;1.63;;;15.80;54.20;;;;;;5024273;28;20026;-71
2021/03/23 07:28:26;;;;;;;9.40;1.95;;;15.90;54.00;;;;;;5025456;28;20033;-74
2021/03/23 07:31:35;;;;;;;5.75;1.83;;;15.90;53.90;;;;;;5025466;28;20255;-70
2021/03/23 07:34:19;;;;;;;4.93;1.70;;;15.90;53.70;;;;;;5006806;28;20028;-71
2021/03/23 07:37:12;;;;;;;7.80;1.88;;;15.90;53.70;;;;;;5025915;28;20037;-72
2021/03/23 07:39:59;;;;;;;7.15;1.65;;;15.90;54.00;;;;;;5024896;28;20118;-71
2021/03/23 07:42:30;;;;;;;10.90;1.95;;;15.80;53.80;;;;;;5024684;28;20025;-71
2021/03/23 07:45:34;;;;;;;7.40;2.53;;;15.80;53.70;;;;;;5024775;28;20079;-72
2021/03/23 07:48:04;;;;;;;7.35;1.85;;;15.80;53.80;;;;;;5025767;28;20368;-72
2021/03/23 07:50:34;;;;;;;6.07;1.95;;;15.80;53.60;;;;;;5025582;28;20323;-70
2021/03/23 07:53:09;;;;;;;5.78;1.60;;;15.80;53.60;;;;;;5024503;28;20040;-71
2021/03/23 07:55:35;;;;;;;7.18;1.80;;;15.80;53.60;;;;;;5024777;28;20029;-71
2021/03/23 07:58:19;;;;;;;8.52;1.90;;;15.80;53.70;;;;;;5024176;28;20041;-71
2021/03/23 08:01:12;;;;;;;6.07;1.60;;;15.80;53.60;;;;;;5025507;28;20087;-72
2021/03/23 08:04:09;;;;;;;6.10;2.00;;;15.80;53.60;;;;;;5025767;28;20021;-72
2021/03/23 08:07:00;;;;;;;5.10;1.80;;;15.80;53.50;;;;;;5025308;28;20052;-72
2021/03/23 08:09:57;;;;;;;4.10;1.80;;;15.80;53.60;;;;;;5025100;28;20585;-71
2021/03/23 08:12:32;;;;;;;5.60;1.73;;;15.80;53.40;;;;;;5024484;28;20525;-71
2021/03/23 08:15:25;;;;;;;4.97;1.70;;;15.80;53.50;;;;;;5025059;28;20034;-72
2021/03/23 08:18:16;;;;;;;6.55;1.55;;;15.80;53.60;;;;;;5024997;28;20041;-71
2021/03/23 08:20:56;;;;;;;4.82;1.55;;;15.80;53.60;;;;;;5024125;28;20034;-72
2021/03/23 08:23:51;;;;;;;4.78;1.70;;;15.70;53.60;;;;;;5025256;28;20025;-71
2021/03/23 08:26:55;;;;;;;7.13;1.60;;;15.70;53.50;;;;;;5025089;28;20032;-71
2021/03/23 08:29:29;;;;;;;4.30;1.50;;;15.70;53.40;;;;;;5029225;28;20116;-71
2021/03/23 08:32:02;;;;;;;4.70;1.83;;;15.70;53.40;;;;;;5028283;28;20427;-73
2021/03/23 08:35:09;;;;;;;5.00;1.60;;;15.80;53.30;;;;;;5029763;28;20025;-73
2021/03/23 08:37:56;;;;;;;5.60;1.90;;;15.80;53.30;;;;;;5029849;28;20053;-70
2021/03/23 08:40:50;;;;;;;4.72;1.67;;;15.90;53.20;;;;;;5027904;28;20403;-71
2021/03/23 08:43:26;;;;;;;4.47;1.70;;;16.00;53.00;;;;;;5029765;28;20037;-73
2021/03/23 08:45:53;;;;;;;3.90;1.67;;;16.10;52.60;;;;;;5029320;28;20068;-71
2021/03/23 08:48:28;;;;;;;5.43;1.90;;;16.30;52.50;;;;;;5027609;28;20080;-72
2021/03/23 08:51:01;;;;;;;4.50;1.63;;;16.40;52.30;;;;;;5029215;28;20517;-72
2021/03/23 08:53:32;;;;;;;3.63;1.90;;;16.30;52.30;;;;;;5027724;28;20025;-71
2021/03/23 08:55:59;;;;;;;;;;;16.30;52.20;;;;;;5029341;28;20032;-70
2021/03/23 08:58:41;;;;;;;3.40;1.77;;;16.50;51.90;;;;;;5044620;28;20348;-71
2021/03/23 09:01:29;;;;;;;5.18;1.73;;;16.80;51.30;;;;;;5028910;28;20079;-72
2021/03/23 09:04:24;;;;;;;3.70;1.70;;;17.00;50.60;;;;;;5027415;28;20116;-71
2021/03/23 09:07:32;;;;;;;6.13;1.90;;;17.20;49.60;;;;;;5017976;28;20061;-69
2021/03/23 09:09:58;;;;;;;4.63;1.60;;;17.20;49.40;;;;;;5027023;28;20100;-73
2021/03/23 09:12:42;;;;;;;3.40;1.70;;;17.10;49.80;;;;;;5027252;28;20033;-72
2021/03/23 09:15:21;;;;;;;4.53;1.60;;;17.20;49.30;;;;;;5027459;28;20325;-72
2021/03/23 09:18:06;;;;;;;4.60;1.65;;;17.20;49.10;;;;;;5028606;28;20041;-73
2021/03/23 09:20:35;;;;;;;6.28;1.70;;;17.20;49.30;;;;;;5027153;28;20079;-71
2021/03/23 09:23:24;;;;;;;5.22;1.83;;;17.30;49.10;;;;;;5027335;28;20454;-73
2021/03/23 09:26:21;;;;;;;5.03;1.70;;;17.40;48.90;;;;;;5028186;28;20025;-72
2021/03/23 09:28:51;;;;;;;3.47;1.75;;;17.30;49.10;;;;;;5026021;28;20029;-72
2021/03/23 09:31:19;;;;;;;4.30;1.70;;;17.30;49.10;;;;;;5026785;28;20030;-72
2021/03/23 09:33:58;;;;;;;4.18;1.75;;;17.30;49.00;;;;;;5028449;28;20056;-71
2021/03/23 09:36:34;;;;;;;4.35;1.92;;;17.60;49.00;;;;;;5025456;28;20055;-72
2021/03/23 09:39:15;;;;;;;4.25;1.75;;;17.70;47.60;;;;;;5026194;28;20026;-73
2021/03/23 09:41:43;;;;;;;3.53;1.88;;;17.60;48.00;;;;;;5028785;28;20033;-71
2021/03/23 09:44:18;;;;;;;3.05;1.73;;;17.60;48.30;;;;;;5044033;28;20033;-73
2021/03/23 09:46:48;;;;;;;4.72;2.00;;;17.60;48.00;;;;;;5026421;28;20036;-71
2021/03/23 09:49:43;;;;;;;6.20;2.35;;;17.50;48.30;;;;;;5027748;28;20033;-72
2021/03/23 09:52:15;;;;;;;4.80;2.15;;;17.40;48.70;;;;;;5028064;28;20494;-72
2021/03/23 09:54:46;;;;;;;6.10;2.30;;;17.40;48.50;;;;;;5028053;28;20508;-69
2021/03/23 09:57:19;;;;;;;3.97;1.70;;;17.50;48.40;;;;;;5026171;28;20078;-72
2021/03/23 09:59:50;;;;;;;4.88;1.90;;;17.50;48.30;;;;;;5026765;28;20679;-72
2021/03/23 10:02:30;;;;;;;6.57;2.08;;;17.40;48.70;;;;;;5027697;28;20026;-72
2021/03/23 10:04:56;;;;;;;5.50;2.05;;;17.40;48.90;;;;;;5025927;28;20116;-72
2021/03/23 10:07:34;;;;;;;4.55;2.00;;;17.70;48.00;;;;;;5027618;28;20025;-72
2021/03/23 10:10:22;;;;;;;6.00;2.33;;;17.70;48.30;;;;;;5025888;28;20029;-71
2021/03/23 10:12:47;;;;;;;5.07;2.20;;;18.20;46.70;;;;;;5027204;28;20458;-73
2021/03/23 10:15:23;;;;;;;5.50;2.42;;;18.40;46.20;;;;;;5027474;28;20097;-72
2021/03/23 10:17:49;;;;;;;4.13;2.03;;;18.70;45.30;;;;;;5025630;28;20375;-71
2021/03/23 10:20:21;;;;;;;4.72;2.30;;;18.50;45.50;;;;;;5027011;28;20030;-74
2021/03/23 10:22:54;;;;;;;5.90;2.30;;;18.60;45.70;;;;;;5027348;28;20253;-71
2021/03/23 10:25:20;;;;;;;5.07;2.20;;;18.90;44.90;;;;;;5026928;28;20037;-74
2021/03/23 10:27:47;;;;;;;7.03;2.50;;;19.20;44.60;;;;;;5027389;28;20300;-71
2021/03/23 10:30:14;;;;;;;5.72;2.50;;;19.30;44.00;;;;;;5025045;28;20168;-71
2021/03/23 10:32:45;;;;;;;5.63;2.45;;;19.10;44.00;;;;;;5025556;28;20036;-71
2021/03/23 10:35:28;;;;;;;5.55;2.40;;;19.20;44.10;;;;;;5026673;28;20036;-73
2021/03/23 10:38:17;;;;;;;5.30;2.30;;;19.20;43.70;;;;;;5025249;28;20407;-71
2021/03/23 10:40:45;;;;;;;7.13;3.05;;;19.50;43.20;;;;;;5025199;28;20297;-72
2021/03/23 10:43:47;;;;;;;6.65;2.78;;;19.70;42.70;;;;;;5026755;28;20030;-73
2021/03/23 10:46:34;;;;;;;5.85;2.45;;;19.90;42.20;;;;;;5023798;28;20035;-71
2021/03/23 10:49:14;;;;;;;5.03;2.53;;;20.10;41.90;;;;;;5023530;28;20076;-73
2021/03/23 10:51:43;;;;;;;5.68;2.88;;;20.20;41.70;;;;;;5024456;28;20401;-71
2021/03/23 10:54:11;;;;;;;5.35;2.53;;;20.20;41.70;;;;;;5027065;28;20101;-71
2021/03/23 10:56:43;;;;;;;6.03;2.60;;;20.20;41.40;;;;;;5025444;28;20651;-72
2021/03/23 10:59:18;;;;;;;6.10;2.67;;;20.20;41.50;;;;;;5026058;28;20028;-71
2021/03/23 11:01:56;;;;;;;4.70;2.47;;;20.20;41.70;;;;;;5026536;28;20152;-72
2021/03/23 11:04:22;;;;;;;5.55;2.83;;;20.10;41.70;;;;;;5026562;28;20021;-73
2021/03/23 11:06:48;;;;;;;6.22;2.88;;;20.20;41.70;;;;;;5024666;28;20033;-74
2021/03/23 11:09:16;;;;;;;5.82;2.90;;;20.20;41.50;;;;;;5026316;28;20055;-72
2021/03/23 11:11:43;;;;;;;5.43;3.03;;;20.30;41.40;;;;;;5026292;28;20095;-71
2021/03/23 11:14:09;;;;;;;6.72;2.90;;;20.30;41.40;;;;;;5024636;28;20550;-71
2021/03/23 11:16:37;;;;;;;6.53;3.08;;;20.10;41.50;;;;;;5024913;28;20506;-72
2021/03/23 11:19:14;;;;;;;6.53;3.33;;;19.90;42.30;;;;;;5025587;28;20036;-72
2021/03/23 11:21:42;;;;;;;5.15;2.83;;;19.70;42.80;;;;;;5025740;28;20022;-71
2021/03/23 11:24:08;;;;;;;6.70;3.33;;;19.60;42.90;;;;;;5025845;28;20114;-72
2021/03/23 11:26:34;;;;;;;5.30;2.65;;;19.80;42.40;;;;;;5026131;28;20072;-71
2021/03/23 11:29:04;;;;;;;5.72;2.83;;;19.80;42.50;;;;;;5025654;28;20099;-72
2021/03/23 11:31:32;;;;;;;6.65;3.10;;;20.00;42.00;;;;;;5025892;28;20029;-72
2021/03/23 11:34:00;;;;;;;7.00;3.20;;;19.50;42.60;;;;;;5024676;28;20331;-72
2021/03/23 11:36:27;;;;;;;6.50;3.00;;;19.50;43.10;;;;;;5024385;28;20033;-71
2021/03/23 11:38:53;;;;;;;6.43;3.15;;;20.10;42.10;;;;;;5024357;28;20029;-72
2021/03/23 11:41:30;;;;;;;6.93;3.22;;;19.70;42.70;;;;;;5025733;28;20029;-72
2021/03/23 11:44:04;;;;;;;6.97;3.60;;;19.10;43.70;;;;;;5024452;28;20130;-74
2021/03/23 11:46:57;;;;;;;7.25;3.47;;;18.80;44.60;;;;;;5024662;28;20040;-72
2021/03/23 11:49:40;;;;;;;5.20;3.03;;;18.90;44.80;;;;;;5024119;28;20608;-72
2021/03/23 11:52:06;;;;;;;7.57;3.28;;;18.20;46.10;;;;;;5025844;28;20026;-73
2021/03/23 11:54:32;;;;;;;6.85;3.53;;;17.80;47.30;;;;;;5024361;28;20021;-74
2021/03/23 11:56:58;;;;;;;6.43;3.10;;;18.10;47.00;;;;;;5024403;28;20022;-72
2021/03/23 11:59:24;;;;;;;7.47;3.30;;;18.00;46.90;;;;;;5022278;28;20314;-71
2021/03/23 12:01:49;;;;;;;7.95;3.33;;;17.90;46.90;;;;;;5021447;28;20491;-73
2021/03/23 12:04:15;;;;;;;6.75;3.85;;;17.80;47.30;;;;;;5025688;28;20878;-69
2021/03/23 12:06:56;;;;;;;6.93;3.55;;;18.20;46.50;;;;;;5040965;28;20033;-73
2021/03/23 12:09:57;;;;;;;8.20;3.37;;;18.10;46.80;;;;;;5040400;28;20033;-70
2021/03/23 12:12:22;;;;;;;7.93;3.30;;;18.60;52.10;;;;;;5005835;28;20291;-71
2021/03/23 12:15:15;;;;;;;6.63;3.30;;;18.40;52.40;;;;;;5006047;28;20042;-75
2021/03/23 12:17:46;;;;;;;7.28;3.95;;;17.70;47.90;;;;;;5021110;28;20026;-73
2021/03/23 12:20:19;;;;;;;6.60;3.80;;;17.30;48.70;;;;;;5003548;28;20036;-74
2021/03/23 12:22:46;;;;;;;6.85;3.10;;;17.20;49.40;;;;;;5003263;28;20034;-72
2021/03/23 12:25:12;;;;;;;6.45;3.60;;;17.10;49.40;;;;;;5004072;28;20029;-73
2021/03/23 12:27:38;;;;;;;6.38;3.45;;;17.00;49.60;;;;;;5005255;28;20765;-73
2021/03/23 12:30:05;;;;;;;6.82;3.47;;;17.00;50.00;;;;;;5005082;28;20037;-73
2021/03/23 12:32:33;;;;;;;7.07;3.30;;;16.90;50.10;;;;;;5020098;28;20460;-72
2021/03/23 12:34:59;;;;;;;7.03;3.42;;;16.80;50.10;;;;;;5005711;28;20446;-72
2021/03/23 12:37:25;;;;;;;6.07;3.20;;;16.80;50.10;;;;;;5005566;28;20028;-73
2021/03/23 12:39:55;;;;;;;14.32;4.45;;;16.80;50.00;;;;;;5005399;28;20029;-73
2021/03/23 12:42:26;;;;;;;10.38;4.00;;;16.80;50.10;;;;;;5009343;28;20060;-76
2021/03/23 12:44:51;;;;;;;7.18;3.65;;;17.00;50.70;;;;;;5040703;28;20145;-73
2021/03/23 12:47:17;;;;;;;7.50;3.60;;;17.00;49.80;;;;;;5024024;28;20037;-65
2021/03/23 12:49:43;;;;;;;10.32;4.40;;;17.00;49.90;;;;;;5025073;28;20029;-76
2021/03/23 12:52:13;;;;;;;10.85;4.38;;;17.20;49.90;;;;;;5041008;28;20152;-75
2021/03/23 12:54:45;;;;;;;7.95;4.22;;;17.20;50.20;;;;;;5041454;28;20363;-75
2021/03/23 12:57:17;;;;;;;9.07;4.32;;;17.20;49.30;;;;;;5041560;28;20029;-75
2021/03/23 12:59:44;;;;;;;7.32;4.20;;;17.10;49.80;;;;;;5025888;28;20030;-73
2021/03/23 13:02:12;;;;;;;11.48;4.22;;;17.10;49.60;;;;;;5042013;28;20029;-74
2021/03/23 13:04:38;;;;;;;9.80;4.93;;;17.10;49.40;;;;;;5041628;28;20088;-68
2021/03/23 13:07:06;;;;;;;9.75;4.35;;;17.00;49.80;;;;;;5041394;28;20029;-73
2021/03/23 13:09:35;;;;;;;9.63;4.40;;;17.00;50.30;;;;;;5041257;28;20040;-73
2021/03/23 13:12:01;;;;;;;9.32;4.53;;;16.90;50.60;;;;;;5026076;28;20048;-69
2021/03/23 13:14:28;;;;;;;8.98;4.55;;;17.00;50.40;;;;;;5026099;28;20071;-69